Time;durP1;ratioP1;P1;durP2;ratioP2;P2;SDS_P1;SDS_P2;PMS_P1;PMS_P2;Temp;Humidity;BMP_temperature;BMP_pressure;BME280_temperature;BME280_humidity;BME280_pressure;Samples;Min_cycle;Max_cycle;Signal;HPM_P1;HPM_P2
2022/04/05 00:00:44;;;;;;;8.95;4.28;;;;;;;4.20;92.93;148719.28;1778999;79;20978;-61
2022/04/05 00:03:12;;;;;;;8.45;4.45;;;;;;;4.22;93.20;148723.17;1774463;79;21064;-61
2022/04/05 00:05:39;;;;;;;8.80;4.35;;;;;;;4.21;93.42;148721.86;1775453;80;21034;-60
2022/04/05 00:08:07;;;;;;;11.25;4.78;;;;;;;4.20;93.69;148719.28;1774938;80;21243;-61
2022/04/05 00:10:36;;;;;;;7.28;4.80;;;;;;;4.20;94.06;148717.97;1777227;80;21054;-61
2022/04/05 00:13:07;;;;;;;7.70;4.70;;;;;;;4.20;94.46;148719.28;1777445;80;21097;-61
2022/04/05 00:15:35;;;;;;;11.60;4.95;;;;;;;4.19;94.74;148716.70;1779457;78;21085;-60
2022/04/05 00:18:02;;;;;;;8.15;5.00;;;;;;;4.21;95.00;148721.86;1772729;80;21574;-60
2022/04/05 00:20:30;;;;;;;7.10;4.53;;;;;;;4.21;95.31;148721.86;1777821;79;21125;-60
2022/04/05 00:23:00;;;;;;;8.15;4.67;;;;;;;4.20;95.60;148717.97;1772912;79;21046;-60
2022/04/05 00:25:28;;;;;;;8.38;5.08;;;;;;;4.20;95.84;148717.97;1778004;80;21026;-60
2022/04/05 00:27:55;;;;;;;6.83;4.40;;;;;;;4.19;96.07;148715.39;1777807;79;21610;-61
2022/04/05 00:30:23;;;;;;;8.80;5.30;;;;;;;4.19;96.51;148715.39;1795319;79;21512;-62
2022/04/05 00:32:50;;;;;;;7.95;4.67;;;;;;;4.19;96.51;148715.39;1789148;78;21218;-60
2022/04/05 00:35:17;;;;;;;8.60;4.35;;;;;;;4.20;96.85;148719.28;1781946;79;21268;-60
2022/04/05 00:37:44;;;;;;;6.62;4.47;;;;;;;4.20;97.14;148719.28;1788715;79;21623;-60
2022/04/05 00:40:13;;;;;;;7.87;4.53;;;;;;;4.19;97.45;148716.70;1791872;78;20904;-61
2022/04/05 00:42:40;;;;;;;8.93;4.65;;;;;;;4.20;97.84;148719.28;1788497;79;21571;-60
2022/04/05 00:45:09;;;;;;;9.23;4.70;;;;;;;4.19;98.51;148716.70;1782914;79;21819;-61
2022/04/05 00:47:36;;;;;;;9.75;4.72;;;;;;;4.19;98.78;148716.70;1786255;79;21054;-61
2022/04/05 00:50:05;;;;;;;9.93;4.60;;;;;;;4.19;99.02;148715.39;1781762;79;21093;-60
2022/04/05 00:52:33;;;;;;;11.18;5.30;;;;;;;4.17;99.46;148711.53;1789039;79;21441;-60
2022/04/05 00:55:01;;;;;;;10.00;4.85;;;;;;;4.17;99.82;148711.53;1789707;78;21524;-61
2022/04/05 00:57:29;;;;;;;10.98;5.12;;;;;;;4.15;100.00;148707.66;1787588;79;48481;-61
2022/04/05 00:59:59;;;;;;;13.32;4.45;;;;;;;4.15;100.00;148707.66;1784048;79;21073;-60
2022/04/05 01:02:27;;;;;;;7.45;4.55;;;;;;;4.18;100.00;148714.13;1783161;79;21082;-61
2022/04/05 01:04:56;;;;;;;10.30;4.87;;;;;;;4.18;100.00;148714.13;1750073;79;21073;-61
2022/04/05 01:07:27;;;;;;;9.95;4.53;;;;;;;4.19;100.00;148716.70;1781861;79;21137;-61
2022/04/05 01:09:55;;;;;;;10.40;4.67;;;;;;;4.19;100.00;148716.70;1786112;79;21121;-61
2022/04/05 01:12:24;;;;;;;11.00;5.60;;;;;;;4.20;100.00;148717.97;1789198;79;21046;-60
2022/04/05 01:14:52;;;;;;;10.85;4.62;;;;;;;4.20;100.00;148719.28;1786877;79;21112;-60
2022/04/05 01:17:19;;;;;;;11.33;5.00;;;;;;;4.20;100.00;148719.28;1788054;79;20994;-60
2022/04/05 01:19:48;;;;;;;8.85;4.70;;;;;;;4.21;100.00;148721.86;1792043;79;21082;-60
2022/04/05 01:22:15;;;;;;;8.60;4.85;;;;;;;4.22;100.00;148723.17;1782953;79;21948;-60
2022/04/05 01:24:43;;;;;;;10.95;5.10;;;;;;;4.23;100.00;148725.77;1779951;79;21749;-60
2022/04/05 01:27:16;;;;;;;12.88;5.25;;;;;;;4.23;100.00;148727.03;1778436;79;21039;-60
2022/04/05 01:29:39;;;;;;;9.28;5.20;;;;;;;4.21;100.00;148721.86;1786656;79;21630;-60
2022/04/05 01:32:08;;;;;;;13.65;5.70;;;;;;;4.25;100.00;148732.19;1786678;78;21124;-60
2022/04/05 01:34:36;;;;;;;13.05;5.47;;;;;;;4.25;100.00;148732.19;1791169;78;21190;-60
2022/04/05 01:37:14;;;;;;;11.08;5.70;;;;;;;4.25;100.00;148732.19;1789017;79;20998;-61
2022/04/05 01:39:41;;;;;;;8.65;5.17;;;;;;;4.22;100.00;148724.44;1789315;78;21448;-60
2022/04/05 01:42:14;;;;;;;11.15;5.50;;;;;;;4.21;100.00;148721.86;1790069;78;21074;-60
2022/04/05 01:44:42;;;;;;;13.05;5.75;;;;;;;4.21;100.00;148721.86;1782412;79;21054;-60
2022/04/05 01:47:13;;;;;;;10.15;5.70;;;;;;;4.23;100.00;148727.03;1786213;79;21219;-60
2022/04/05 01:49:42;;;;;;;12.03;5.55;;;;;;;4.24;100.00;148729.61;1784585;79;20990;-60
2022/04/05 01:52:10;;;;;;;8.70;5.03;;;;;;;4.24;100.00;148729.61;1780736;79;20974;-60
2022/04/05 01:54:39;;;;;;;11.68;5.30;;;;;;;4.25;100.00;148730.92;1789583;79;21046;-60
2022/04/05 01:57:06;;;;;;;13.50;5.97;;;;;;;4.25;100.00;148730.92;1784171;78;21022;-60
2022/04/05 01:59:36;;;;;;;15.43;6.10;;;;;;;4.25;100.00;148732.19;1794913;79;21246;-60
2022/04/05 02:02:05;;;;;;;14.78;6.30;;;;;;;4.24;100.00;148729.61;1791191;79;21440;-60
2022/04/05 02:04:33;;;;;;;15.30;6.60;;;;;;;4.26;100.00;148733.50;1783693;79;20979;-60
2022/04/05 02:07:00;;;;;;;10.00;5.85;;;;;;;4.26;100.00;148733.50;1784120;78;21070;-60
2022/04/05 02:09:27;;;;;;;11.60;6.08;;;;;;;4.27;100.00;148736.08;1783954;79;20999;-60
2022/04/05 02:11:55;;;;;;;17.20;6.80;;;;;;;4.28;100.00;148738.66;1780556;79;21239;-60
2022/04/05 02:14:27;;;;;;;11.93;6.12;;;;;;;4.25;100.00;148732.19;1788914;79;20955;-60
2022/04/05 02:16:54;;;;;;;15.48;6.12;;;;;;;4.25;100.00;148732.19;1791533;79;21050;-61
2022/04/05 02:19:22;;;;;;;13.65;6.17;;;;;;;4.26;100.00;148734.77;1791958;78;21050;-60
2022/04/05 02:21:50;;;;;;;12.23;5.97;;;;;;;4.27;100.00;148737.34;1784640;79;21082;-60
2022/04/05 02:24:18;;;;;;;12.60;7.45;;;;;;;4.26;100.00;148734.77;1789694;78;21231;-61
2022/04/05 02:26:46;;;;;;;15.30;6.37;;;;;;;4.26;100.00;148733.50;1753278;80;21031;-60
2022/04/05 02:29:14;;;;;;;10.45;6.58;;;;;;;4.26;100.00;148734.77;1791906;78;21513;-60
2022/04/05 02:31:43;;;;;;;14.45;6.95;;;;;;;4.26;100.00;148733.50;1786972;79;21022;-62
2022/04/05 02:34:11;;;;;;;12.47;6.47;;;;;;;4.25;100.00;148732.19;1788657;79;21094;-60
2022/04/05 02:36:40;;;;;;;13.03;6.97;;;;;;;4.25;100.00;148732.19;1779681;79;21118;-60
2022/04/05 02:39:08;;;;;;;18.12;7.03;;;;;;;4.24;100.00;148729.61;1789143;78;21493;-61
2022/04/05 02:41:37;;;;;;;17.20;8.43;;;;;;;4.25;100.00;148732.19;1788229;79;21038;-60
2022/04/05 02:44:06;;;;;;;19.75;7.45;;;;;;;4.24;100.00;148729.61;1749069;79;21086;-60
2022/04/05 02:46:34;;;;;;;19.95;7.67;;;;;;;4.24;100.00;148729.61;1790266;79;21488;-60
2022/04/05 02:49:01;;;;;;;15.58;7.53;;;;;;;4.24;100.00;148728.34;1787401;79;21231;-60
2022/04/05 02:51:31;;;;;;;13.93;7.53;;;;;;;4.24;100.00;148728.34;1784506;79;21269;-60
2022/04/05 02:54:00;;;;;;;12.73;7.25;;;;;;;4.24;100.00;148728.34;1793128;79;21149;-60
2022/04/05 02:56:28;;;;;;;12.33;7.78;;;;;;;4.23;100.00;148727.03;1753004;79;21030;-59
2022/04/05 02:58:56;;;;;;;18.75;7.72;;;;;;;4.23;100.00;148727.03;1751151;79;21078;-61
2022/04/05 03:01:23;;;;;;;13.55;7.78;;;;;;;4.22;100.00;148724.44;1795670;79;21187;-60
2022/04/05 03:03:51;;;;;;;18.48;7.62;;;;;;;4.20;100.00;148719.28;1789381;79;21023;-60
2022/04/05 03:06:19;;;;;;;15.53;7.47;;;;;;;4.20;100.00;148719.28;1789016;78;20975;-60
2022/04/05 03:08:47;;;;;;;17.00;8.88;;;;;;;4.21;100.00;148720.59;1789701;79;21063;-59
2022/04/05 03:11:15;;;;;;;14.70;7.25;;;;;;;4.20;100.00;148719.28;1782676;78;21002;-60
2022/04/05 03:13:43;;;;;;;15.55;7.80;;;;;;;4.19;100.00;148715.39;1782435;79;21302;-60
2022/04/05 03:16:11;;;;;;;22.20;8.43;;;;;;;4.18;100.00;148712.81;1752729;79;21527;-60
2022/04/05 03:18:39;;;;;;;16.25;7.75;;;;;;;4.18;100.00;148712.81;1790247;79;21043;-59
2022/04/05 03:21:07;;;;;;;15.80;9.03;;;;;;;4.18;100.00;148714.13;1789494;79;21086;-60
2022/04/05 03:23:35;;;;;;;16.40;8.85;;;;;;;4.18;100.00;148714.13;1782785;79;21053;-60
2022/04/05 03:26:03;;;;;;;17.05;9.38;;;;;;;4.18;100.00;148714.13;1784687;79;21555;-62
2022/04/05 03:28:31;;;;;;;17.55;9.00;;;;;;;4.17;100.00;148711.53;1758893;79;20980;-61
2022/04/05 03:30:59;;;;;;;13.55;8.48;;;;;;;4.17;100.00;148711.53;1787044;79;21039;-61
2022/04/05 03:33:27;;;;;;;17.90;9.08;;;;;;;4.18;100.00;148714.13;1783976;79;21116;-61
2022/04/05 03:35:55;;;;;;;19.30;9.15;;;;;;;4.18;100.00;148712.81;1784164;79;21081;-61
2022/04/05 03:38:22;;;;;;;15.28;7.97;;;;;;;4.20;100.00;148717.97;1783192;79;21306;-61
2022/04/05 03:40:51;;;;;;;18.50;9.33;;;;;;;4.20;100.00;148719.28;1790105;79;21027;-60
2022/04/05 03:43:21;;;;;;;15.78;9.43;;;;;;;4.20;100.00;148717.97;1794831;79;21019;-60
2022/04/05 03:46:02;;;;;;;15.70;9.18;;;;;;;4.23;100.00;148727.03;1784562;79;21562;-60
2022/04/05 03:48:31;;;;;;;15.50;9.00;;;;;;;4.23;100.00;148727.03;1789131;79;21069;-60
2022/04/05 03:51:00;;;;;;;15.65;9.45;;;;;;;4.25;100.00;148732.19;1787246;79;21272;-60
2022/04/05 03:53:27;;;;;;;17.52;9.60;;;;;;;4.29;100.00;148742.50;1787216;79;20944;-61
2022/04/05 03:55:55;;;;;;;18.12;9.63;;;;;;;4.35;100.00;148756.73;1784961;79;21089;-61
2022/04/05 03:58:22;;;;;;;20.05;10.25;;;;;;;4.40;100.00;148768.38;1786697;79;21120;-60
2022/04/05 04:00:51;;;;;;;22.30;10.18;;;;;;;4.46;100.00;148782.58;1789652;79;21055;-60
2022/04/05 04:03:20;;;;;;;18.73;11.08;;;;;;;4.51;100.00;148796.75;1794565;79;21097;-60
2022/04/05 04:05:48;;;;;;;18.00;9.08;;;;;;;4.58;100.00;148813.56;1779508;79;21745;-60
2022/04/05 04:08:15;;;;;;;17.32;8.50;;;;;;;4.65;100.00;148830.36;1787645;78;21010;-59
2022/04/05 04:10:48;;;;;;;18.67;9.53;;;;;;;4.81;100.00;148870.41;1782914;79;21470;-60
2022/04/05 04:13:16;;;;;;;21.85;10.58;;;;;;;4.81;100.00;148870.41;1782985;79;21051;-59
2022/04/05 04:15:45;;;;;;;19.65;10.00;;;;;;;4.91;100.00;148894.95;1786601;79;21247;-60
2022/04/05 04:18:12;;;;;;;18.87;10.72;;;;;;;4.98;100.00;148914.34;1783304;79;21094;-60
2022/04/05 04:20:42;;;;;;;20.40;11.33;;;;;;;5.08;100.00;148938.91;1785293;79;21163;-60
2022/04/05 04:23:11;;;;;;;19.32;10.15;;;;;;;5.21;100.00;148969.94;1785361;78;21027;-59
2022/04/05 04:25:41;;;;;;;18.77;10.80;;;;;;;5.30;100.00;148993.19;1788807;79;21001;-61
2022/04/05 04:28:09;;;;;;;15.55;9.85;;;;;;;5.42;100.00;149022.91;1791578;78;21277;-61
2022/04/05 04:30:37;;;;;;;15.60;10.40;;;;;;;5.52;100.00;149047.47;1792827;79;21042;-61
2022/04/05 04:33:06;;;;;;;16.62;10.25;;;;;;;5.64;100.00;149077.20;1778759;79;21116;-60
2022/04/05 04:35:34;;;;;;;16.05;9.93;;;;;;;5.73;100.00;149101.77;1789629;78;21433;-60
2022/04/05 04:38:03;;;;;;;21.02;10.23;;;;;;;5.87;100.00;149135.41;1786263;78;21090;-60
2022/04/05 04:40:30;;;;;;;16.97;9.90;;;;;;;5.98;100.00;149163.83;1786583;79;21231;-61
2022/04/05 04:42:58;;;;;;;20.10;10.68;;;;;;;6.14;100.00;149202.69;1781964;79;21136;-60
2022/04/05 04:45:28;;;;;;;13.10;9.35;;;;;;;6.27;100.00;149236.30;1794054;79;21040;-60
2022/04/05 04:47:56;;;;;;;17.92;10.05;;;;;;;6.39;100.00;149264.78;1784246;79;21201;-60
2022/04/05 04:50:23;;;;;;;19.87;10.08;;;;;;;6.52;100.00;149298.44;1791751;79;20990;-60
2022/04/05 04:52:50;;;;;;;17.32;9.50;;;;;;;6.65;100.00;149329.45;1781640;79;21265;-60
2022/04/05 04:55:22;;;;;;;17.20;8.83;;;;;;;6.78;100.00;149363.11;1795639;78;21029;-60
2022/04/05 04:57:50;;;;;;;14.87;9.08;;;;;;;6.94;100.00;149403.22;1795410;79;21023;-59
2022/04/05 05:00:17;;;;;;;18.85;10.20;;;;;;;7.09;100.00;149440.75;1792037;79;21464;-60
2022/04/05 05:02:49;;;;;;;17.30;9.15;;;;;;;7.24;100.00;149478.27;1780180;79;21297;-60
2022/04/05 05:05:17;;;;;;;18.23;9.58;;;;;;;7.37;100.00;149510.62;1787911;79;21508;-60
2022/04/05 05:07:45;;;;;;;15.30;9.63;;;;;;;7.54;100.00;149552.06;1786920;78;20986;-59
2022/04/05 05:10:12;;;;;;;17.05;9.25;;;;;;;7.67;100.00;149584.44;1786448;79;21109;-59
2022/04/05 05:12:40;;;;;;;19.95;9.63;;;;;;;7.81;100.00;149620.72;1786120;79;21018;-60
2022/04/05 05:15:10;;;;;;;15.35;9.83;;;;;;;7.94;100.00;149653.08;1790881;78;21539;-59
2022/04/05 05:17:37;;;;;;;14.70;9.05;;;;;;;8.07;100.00;149685.47;1787539;79;21233;-59
2022/04/05 05:20:08;;;;;;;16.30;9.68;;;;;;;8.21;100.00;149720.42;1783536;79;21017;-61
2022/04/05 05:22:35;;;;;;;16.20;9.10;;;;;;;8.36;98.62;149756.72;1781786;79;20996;-60
2022/04/05 05:25:03;;;;;;;14.83;8.68;;;;;;;8.49;96.95;149790.38;1781157;79;21070;-60
2022/04/05 05:27:30;;;;;;;17.27;8.80;;;;;;;8.63;95.58;149824.13;1782374;80;20868;-61
2022/04/05 05:29:57;;;;;;;18.10;8.93;;;;;;;8.78;94.63;149863.03;1780830;79;21201;-61
2022/04/05 05:32:26;;;;;;;16.80;9.58;;;;;;;8.92;93.34;149896.69;1792795;79;21003;-60
2022/04/05 05:34:53;;;;;;;13.75;8.58;;;;;;;9.07;91.66;149935.59;1789359;79;21038;-59
2022/04/05 05:37:21;;;;;;;17.77;8.95;;;;;;;9.19;89.85;149964.12;1795805;78;21055;-60
2022/04/05 05:39:49;;;;;;;14.80;9.13;;;;;;;9.26;87.53;149983.53;1785782;79;21034;-60
2022/04/05 05:42:17;;;;;;;14.47;9.08;;;;;;;9.32;86.84;149997.81;1792328;79;21245;-60
2022/04/05 05:44:44;;;;;;;14.25;9.15;;;;;;;9.41;85.68;150019.84;1782974;79;21519;-60
2022/04/05 05:47:12;;;;;;;16.55;8.88;;;;;;;9.53;85.26;150051.00;1775944;79;21037;-61
2022/04/05 05:49:39;;;;;;;16.90;8.77;;;;;;;9.69;84.28;150091.19;1779560;79;21108;-60
2022/04/05 05:52:06;;;;;;;15.18;8.95;;;;;;;9.85;83.35;150130.11;1780019;79;21089;-61
2022/04/05 05:54:35;;;;;;;14.98;9.13;;;;;;;9.98;82.00;150163.80;1778161;79;21558;-63
2022/04/05 05:57:03;;;;;;;15.93;9.25;;;;;;;10.08;80.12;150187.17;1792169;79;21038;-61
2022/04/05 05:59:30;;;;;;;15.80;9.25;;;;;;;10.17;78.48;150211.83;1783676;79;21038;-60
2022/04/05 06:02:10;;;;;;;15.40;9.20;;;;;;;10.25;77.24;150231.25;1787280;79;21074;-59
2022/04/05 06:04:39;;;;;;;17.95;9.30;;;;;;;10.53;76.49;150300.08;1789577;78;20994;-61
2022/04/05 06:07:06;;;;;;;18.05;9.08;;;;;;;11.01;74.17;150420.78;1782063;79;21136;-62
2022/04/05 06:09:35;;;;;;;13.88;8.73;;;;;;;11.40;72.28;150519.47;1786408;79;21610;-60
2022/04/05 06:12:05;;;;;;;12.20;8.78;;;;;;;12.02;70.37;150675.33;1789752;79;21654;-60
2022/04/05 06:14:33;;;;;;;13.00;8.05;;;;;;;12.82;67.36;150874.13;1785948;79;21038;-60
2022/04/05 06:17:00;;;;;;;12.95;8.68;;;;;;;13.69;65.03;151092.61;1782300;79;21054;-61
2022/04/05 06:19:27;;;;;;;14.15;8.70;;;;;;;14.12;61.04;151200.59;1782406;79;21884;-61
2022/04/05 06:21:54;;;;;;;12.15;8.60;;;;;;;14.43;59.88;151278.66;1792313;79;21002;-62
2022/04/05 06:24:23;;;;;;;10.85;8.10;;;;;;;14.86;58.32;151386.75;1792408;79;21412;-61
2022/04/05 06:26:51;;;;;;;14.13;8.48;;;;;;;15.22;56.08;151476.56;1781424;79;21503;-60
2022/04/05 06:29:18;;;;;;;14.10;8.25;;;;;;;15.13;53.33;151455.70;1782499;79;21029;-61
2022/04/05 06:31:45;;;;;;;13.53;8.68;;;;;;;14.71;52.44;151350.28;1782711;79;21624;-60
2022/04/05 06:34:13;;;;;;;12.10;8.65;;;;;;;14.28;52.17;151242.25;1779762;80;21101;-61
2022/04/05 06:36:40;;;;;;;13.38;8.78;;;;;;;13.90;52.76;151145.97;1776759;80;21027;-60
2022/04/05 06:39:08;;;;;;;13.85;9.10;;;;;;;13.66;53.22;151086.14;1774653;80;21082;-61
2022/04/05 06:41:35;;;;;;;14.15;9.25;;;;;;;13.50;53.34;151045.84;1780914;79;21008;-61
2022/04/05 06:44:03;;;;;;;12.60;9.10;;;;;;;13.26;53.74;150985.97;1779772;79;21167;-61
2022/04/05 06:46:31;;;;;;;13.20;9.03;;;;;;;13.08;54.33;150939.17;1776408;80;21006;-61
2022/04/05 06:48:58;;;;;;;11.48;8.43;;;;;;;12.97;54.70;150913.14;1778117;79;21038;-60
2022/04/05 06:51:28;;;;;;;12.80;9.13;;;;;;;12.88;54.84;150891.03;1779645;80;21397;-60
2022/04/05 06:53:57;;;;;;;19.52;8.88;;;;;;;12.78;54.89;150865.06;1752173;81;21121;-61
2022/04/05 06:56:26;;;;;;;16.00;9.15;;;;;;;12.67;55.44;150836.45;1775927;80;21305;-62
2022/04/05 06:58:53;;;;;;;13.08;8.30;;;;;;;12.61;55.56;150823.47;1773415;80;21499;-60
2022/04/05 07:01:20;;;;;;;14.93;8.88;;;;;;;12.56;54.30;150810.48;1781029;80;20984;-61
2022/04/05 07:03:48;;;;;;;13.72;8.73;;;;;;;12.56;54.23;150810.48;1773673;80;21014;-61
2022/04/05 07:06:15;;;;;;;14.68;9.05;;;;;;;12.57;54.25;150811.75;1780149;80;21067;-61
2022/04/05 07:08:44;;;;;;;13.40;8.05;;;;;;;12.52;54.62;150800.09;1770740;79;21696;-61
2022/04/05 07:11:13;;;;;;;11.88;7.72;;;;;;;12.49;54.94;150792.31;1771087;80;20981;-62
2022/04/05 07:13:40;;;;;;;15.55;8.48;;;;;;;12.48;55.12;150789.66;1765460;79;21538;-61
2022/04/05 07:16:08;;;;;;;14.13;9.15;;;;;;;12.49;54.57;150792.31;1762744;80;21060;-61
2022/04/05 07:18:35;;;;;;;13.60;8.60;;;;;;;12.42;54.44;150774.08;1762778;81;21167;-61
2022/04/05 07:21:02;;;;;;;12.75;8.48;;;;;;;12.32;54.60;150750.72;1762463;80;21439;-61
2022/04/05 07:23:30;;;;;;;13.48;8.30;;;;;;;12.29;55.22;150741.59;1767511;81;20942;-61
2022/04/05 07:25:57;;;;;;;13.53;8.35;;;;;;;12.31;55.21;150748.11;1771152;81;21065;-62
2022/04/05 07:28:24;;;;;;;13.53;8.60;;;;;;;12.35;54.46;150757.17;1771873;79;21037;-61
2022/04/05 07:30:52;;;;;;;16.02;8.08;;;;;;;12.31;54.14;150746.80;1764564;79;21073;-61
2022/04/05 07:33:19;;;;;;;13.45;7.90;;;;;;;12.29;54.23;150741.59;1774345;79;21486;-61
2022/04/05 07:35:47;;;;;;;15.18;8.58;;;;;;;12.31;53.88;150748.11;1795284;78;21029;-61
2022/04/05 07:38:14;;;;;;;13.85;7.90;;;;;;;12.37;53.66;150761.09;1767394;81;21037;-61
2022/04/05 07:40:48;;;;;;;11.53;7.72;;;;;;;12.45;53.69;150781.88;1775356;79;22054;-61
2022/04/05 07:43:21;;;;;;;13.15;7.70;;;;;;;12.49;52.29;150790.98;1771467;79;21099;-61
2022/04/05 07:45:51;;;;;;;14.33;7.78;;;;;;;12.47;51.70;150787.06;1770843;79;21778;-61
2022/04/05 07:48:29;;;;;;;10.15;7.05;;;;;;;12.41;51.39;150771.48;1740769;81;21076;-61
2022/04/05 07:50:57;;;;;;;12.28;7.12;;;;;;;12.37;51.08;150761.09;1740142;81;21048;-61
2022/04/05 07:53:24;;;;;;;13.00;7.37;;;;;;;12.41;51.25;150771.48;1744583;81;21095;-61
2022/04/05 07:55:54;;;;;;;10.43;7.62;;;;;;;12.45;51.50;150781.88;1770249;79;20938;-61
2022/04/05 07:58:21;;;;;;;9.60;7.35;;;;;;;12.47;51.82;150787.06;1771204;81;22678;-61
2022/04/05 08:00:48;;;;;;;12.25;7.47;;;;;;;12.49;51.26;150792.31;1771039;79;21514;-62
2022/04/05 08:03:17;;;;;;;15.32;7.37;;;;;;;12.53;51.34;150802.69;1771578;81;22010;-61
2022/04/05 08:05:44;;;;;;;10.40;7.28;;;;;;;12.55;50.62;150807.89;1769102;79;21444;-60
2022/04/05 08:08:11;;;;;;;16.65;8.00;;;;;;;12.56;50.27;150810.48;1766355;81;21359;-61
2022/04/05 08:10:39;;;;;;;12.23;7.33;;;;;;;12.61;50.44;150822.19;1765670;79;21297;-61
2022/04/05 08:13:06;;;;;;;12.75;7.10;;;;;;;12.69;50.43;150842.97;1764733;81;21654;-62
2022/04/05 08:15:34;;;;;;;14.50;7.62;;;;;;;12.75;49.99;150857.28;1767839;81;20962;-60
2022/04/05 08:18:01;;;;;;;12.55;7.75;;;;;;;12.81;51.68;150872.86;1770678;81;21026;-61
2022/04/05 08:20:28;;;;;;;10.85;7.45;;;;;;;12.79;52.92;150867.66;1764648;79;20982;-61
2022/04/05 08:22:55;;;;;;;14.65;7.92;;;;;;;12.71;53.30;150846.84;1766726;79;21053;-61
2022/04/05 08:25:24;;;;;;;14.45;7.40;;;;;;;12.69;53.78;150841.64;1768114;80;21015;-61
2022/04/05 08:27:53;;;;;;;12.18;7.50;;;;;;;12.72;53.98;150849.48;1766835;81;20999;-60
2022/04/05 08:30:20;;;;;;;11.60;7.25;;;;;;;12.75;54.03;150857.28;1740916;82;20998;-61
2022/04/05 08:32:48;;;;;;;13.22;8.38;;;;;;;12.74;51.53;150855.95;1753833;81;21303;-61
2022/04/05 08:35:18;;;;;;;13.98;7.55;;;;;;;12.73;52.05;150853.36;1753916;81;21328;-61
2022/04/05 08:37:46;;;;;;;14.60;8.00;;;;;;;12.76;52.94;150859.88;1753203;80;21146;-60
2022/04/05 08:40:15;;;;;;;14.05;8.20;;;;;;;12.82;53.42;150874.13;1757100;80;20980;-60
2022/04/05 08:42:44;;;;;;;18.15;8.93;;;;;;;12.84;53.52;150880.66;1783714;80;21505;-60
2022/04/05 08:45:13;;;;;;;17.62;8.28;;;;;;;12.81;53.23;150872.86;1784599;80;21099;-60
2022/04/05 08:47:55;;;;;;;15.25;8.35;;;;;;;12.75;52.79;150857.28;1784003;80;21016;-60
2022/04/05 08:50:26;;;;;;;15.48;8.75;;;;;;;12.68;52.92;150840.37;1784937;79;21250;-60
2022/04/05 08:52:59;;;;;;;18.40;8.45;;;;;;;12.65;53.91;150831.25;1784624;80;21486;-61
2022/04/05 08:55:26;;;;;;;13.25;8.90;;;;;;;12.64;54.30;150828.66;1778799;78;20947;-61
2022/04/05 08:57:58;;;;;;;14.78;8.45;;;;;;;12.63;54.91;150827.39;1782493;80;21030;-61
2022/04/05 09:00:25;;;;;;;15.70;8.08;;;;;;;12.61;55.53;150823.47;1779385;79;21239;-60
2022/04/05 09:03:02;;;;;;;15.38;9.13;;;;;;;12.57;55.96;150813.08;1782060;79;21490;-60
2022/04/05 09:05:35;;;;;;;18.40;8.50;;;;;;;12.54;56.39;150805.28;1777054;78;21128;-61
2022/04/05 09:08:24;;;;;;;13.70;8.45;;;;;;;12.48;56.95;150789.66;1780623;80;21133;-61
2022/04/05 09:11:15;;;;;;;12.50;8.13;;;;;;;12.35;57.59;150755.91;1775753;78;21315;-61
2022/04/05 09:13:39;;;;;;;15.23;8.25;;;;;;;12.29;58.20;150741.59;1783510;80;21494;-61
2022/04/05 09:16:08;;;;;;;13.08;7.22;;;;;;;12.30;58.49;150745.52;1781160;80;21117;-61
2022/04/05 09:18:37;;;;;;;15.50;7.70;;;;;;;12.28;58.43;150740.33;1775330;80;21538;-61
2022/04/05 09:21:07;;;;;;;16.95;8.10;;;;;;;12.24;58.21;150728.63;1780187;79;21104;-61
2022/04/05 09:23:41;;;;;;;18.30;8.43;;;;;;;12.16;58.46;150709.13;1783926;79;21085;-61
2022/04/05 09:26:12;;;;;;;15.23;7.80;;;;;;;12.09;58.57;150692.22;1783409;80;21089;-61
2022/04/05 09:28:49;;;;;;;13.68;8.20;;;;;;;12.07;58.99;150685.77;1776223;80;21047;-61
2022/04/05 09:31:20;;;;;;;12.73;7.80;;;;;;;12.07;59.04;150685.77;1783286;77;21037;-62
2022/04/05 09:34:08;;;;;;;17.30;8.03;;;;;;;12.11;59.11;150697.42;1772084;79;21105;-61
2022/04/05 09:36:41;;;;;;;13.83;8.65;;;;;;;12.14;59.25;150703.94;1766726;80;20895;-60
2022/04/05 09:39:24;;;;;;;14.55;7.65;;;;;;;12.11;59.28;150696.14;1776288;80;21144;-61
2022/04/05 09:42:07;;;;;;;17.00;8.10;;;;;;;12.07;59.33;150685.77;1777252;80;21129;-61
2022/04/05 09:44:42;;;;;;;18.15;7.37;;;;;;;12.09;59.32;150692.22;1779200;79;21426;-60
2022/04/05 09:47:19;;;;;;;11.48;7.62;;;;;;;12.00;59.40;150670.09;1779753;79;21098;-62
2022/04/05 09:49:48;;;;;;;14.70;7.08;;;;;;;11.87;60.30;150637.63;1774389;79;21051;-62
2022/04/05 09:52:28;;;;;;;12.28;7.80;;;;;;;11.74;61.50;150605.16;1781404;79;21460;-60
2022/04/05 09:54:57;;;;;;;11.83;7.15;;;;;;;11.61;62.55;150571.41;1772779;79;21025;-62
2022/04/05 09:57:32;;;;;;;12.18;7.10;;;;;;;11.50;63.51;150542.81;1776805;79;21058;-61
2022/04/05 10:00:16;;;;;;;11.50;7.30;;;;;;;11.37;64.26;150511.64;1775012;79;21093;-60
2022/04/05 10:03:10;;;;;;;11.22;6.87;;;;;;;11.26;65.22;150483.09;1750016;80;21057;-61
2022/04/05 10:05:39;;;;;;;21.17;7.37;;;;;;;11.13;66.04;150451.92;1775193;80;21022;-61
2022/04/05 10:08:08;;;;;;;16.77;7.17;;;;;;;10.96;66.09;150409.09;1775379;80;21629;-61
2022/04/05 10:10:40;;;;;;;12.70;7.05;;;;;;;10.89;66.24;150392.22;1773661;80;20864;-62
2022/04/05 10:13:09;;;;;;;16.93;7.22;;;;;;;10.87;66.54;150387.02;1773667;80;21097;-61
2022/04/05 10:15:37;;;;;;;10.38;6.83;;;;;;;10.82;66.55;150374.06;1766092;79;20999;-63
2022/04/05 10:18:06;;;;;;;13.98;6.95;;;;;;;10.78;66.33;150363.69;1774363;80;22009;-60
2022/04/05 10:20:35;;;;;;;15.10;6.62;;;;;;;10.74;66.49;150353.31;1776378;80;20968;-61
2022/04/05 10:23:02;;;;;;;12.07;7.05;;;;;;;10.67;66.07;150335.09;1778336;79;21031;-62
2022/04/05 10:25:30;;;;;;;15.35;6.83;;;;;;;10.60;66.22;150319.55;1778679;80;21309;-60
2022/04/05 10:27:59;;;;;;;16.37;7.25;;;;;;;10.58;66.48;150314.36;1781637;79;21042;-60
2022/04/05 10:30:40;;;;;;;9.60;6.33;;;;;;;10.51;66.53;150296.20;1773088;80;21306;-60
2022/04/05 10:33:33;;;;;;;13.85;6.60;;;;;;;10.43;66.43;150276.73;1789484;78;21077;-61
2022/04/05 10:36:01;;;;;;;11.65;6.50;;;;;;;10.37;66.79;150259.81;1793741;79;21068;-60
2022/04/05 10:38:30;;;;;;;12.98;6.70;;;;;;;10.30;67.20;150244.25;1764381;80;21003;-62
2022/04/05 10:41:20;;;;;;;11.10;6.30;;;;;;;10.28;67.22;150239.08;1804159;78;21086;-60
2022/04/05 10:44:09;;;;;;;11.45;6.75;;;;;;;10.28;67.38;150239.08;1789132;79;21261;-60
2022/04/05 10:46:40;;;;;;;12.18;6.00;;;;;;;10.31;67.86;150246.84;1795132;78;20994;-61
2022/04/05 10:49:07;;;;;;;12.35;6.95;;;;;;;10.32;67.99;150249.44;1792261;79;20973;-61
2022/04/05 10:52:24;;;;;;;15.95;6.78;;;;;;;10.34;66.87;150252.03;1779993;79;21067;-61
2022/04/05 10:55:08;;;;;;;13.30;6.60;;;;;;;10.38;64.26;150262.41;1803950;78;20958;-61
2022/04/05 10:57:35;;;;;;;15.53;6.90;;;;;;;10.44;62.47;150278.02;1803676;79;21428;-61
2022/04/05 11:00:12;;;;;;;11.48;6.60;;;;;;;10.44;61.73;150279.33;1795541;79;21973;-60
2022/04/05 11:02:53;;;;;;;10.93;6.47;;;;;;;10.43;62.15;150276.73;1789478;80;22305;-60
2022/04/05 11:05:32;;;;;;;10.63;5.47;;;;;;;10.46;62.04;150283.19;1790266;80;21075;-61
2022/04/05 11:08:02;;;;;;;11.70;6.37;;;;;;;10.49;62.31;150290.97;1790307;79;21105;-61
2022/04/05 11:10:41;;;;;;;13.00;6.60;;;;;;;10.51;62.22;150296.20;1790750;80;21566;-60
2022/04/05 11:13:13;;;;;;;12.18;6.42;;;;;;;10.54;61.74;150303.98;1791480;78;20933;-61
2022/04/05 11:15:44;;;;;;;13.93;5.95;;;;;;;10.57;62.19;150310.44;1810312;78;20999;-61
2022/04/05 11:18:14;;;;;;;12.03;6.20;;;;;;;10.57;62.50;150311.77;1799857;78;21046;-61
2022/04/05 11:20:42;;;;;;;10.72;5.80;;;;;;;10.54;63.44;150302.66;1792070;79;20926;-61
2022/04/05 11:23:10;;;;;;;15.15;6.30;;;;;;;10.52;64.73;150298.80;1790866;80;21285;-61
2022/04/05 11:25:38;;;;;;;18.10;6.20;;;;;;;10.45;64.73;150280.59;1790550;79;20938;-61
2022/04/05 11:28:13;;;;;;;11.15;5.45;;;;;;;10.37;64.44;150259.81;1790508;80;20992;-61
2022/04/05 11:31:07;;;;;;;10.80;6.08;;;;;;;10.31;63.04;150246.84;1790560;80;20986;-61